sensor_id;sensor_type;location;lat;lon;timestamp;temperature;humidity
12957;DHT22;6543;48.836;10.092;2022-08-01T00:01:52;19.30;99.90
12957;DHT22;6543;48.836;10.092;2022-08-01T00:04:19;19.20;99.90
12957;DHT22;6543;48.836;10.092;2022-08-01T00:06:46;19.20;99.90
12957;DHT22;6543;48.836;10.092;2022-08-01T00:09:14;19.30;99.90
12957;DHT22;6543;48.836;10.092;2022-08-01T00:11:41;19.40;99.90
12957;DHT22;6543;48.836;10.092;2022-08-01T00:14:08;19.50;99.90
12957;DHT22;6543;48.836;10.092;2022-08-01T00:16:36;19.60;99.90
12957;DHT22;6543;48.836;10.092;2022-08-01T00:19:04;19.50;99.90
12957;DHT22;6543;48.836;10.092;2022-08-01T00:21:31;19.50;99.90
12957;DHT22;6543;48.836;10.092;2022-08-01T00:23:58;19.50;99.90
12957;DHT22;6543;48.836;10.092;2022-08-01T00:26:27;19.40;99.90
12957;DHT22;6543;48.836;10.092;2022-08-01T00:28:53;19.30;99.90
12957;DHT22;6543;48.836;10.092;2022-08-01T00:31:20;19.20;99.90
12957;DHT22;6543;48.836;10.092;2022-08-01T00:33:47;19.10;99.90
12957;DHT22;6543;48.836;10.092;2022-08-01T00:36:14;19.00;99.90
12957;DHT22;6543;48.836;10.092;2022-08-01T00:38:41;18.90;99.90
12957;DHT22;6543;48.836;10.092;2022-08-01T00:41:08;18.00;99.90
12957;DHT22;6543;48.836;10.092;2022-08-01T00:43:36;18.80;99.90
12957;DHT22;6543;48.836;10.092;2022-08-01T00:46:03;18.90;99.90
12957;DHT22;6543;48.836;10.092;2022-08-01T00:48:30;18.90;99.90
12957;DHT22;6543;48.836;10.092;2022-08-01T00:50:57;18.80;99.90
12957;DHT22;6543;48.836;10.092;2022-08-01T00:53:24;18.90;99.90
12957;DHT22;6543;48.836;10.092;2022-08-01T00:55:52;18.90;99.90
12957;DHT22;6543;48.836;10.092;2022-08-01T00:58:19;18.90;99.90
12957;DHT22;6543;48.836;10.092;2022-08-01T01:00:48;19.10;99.90
12957;DHT22;6543;48.836;10.092;2022-08-01T01:03:15;19.00;99.90
12957;DHT22;6543;48.836;10.092;2022-08-01T01:05:48;19.00;99.90
12957;DHT22;6543;48.836;10.092;2022-08-01T01:08:20;19.10;99.90
12957;DHT22;6543;48.836;10.092;2022-08-01T01:10:54;19.00;99.90
12957;DHT22;6543;48.836;10.092;2022-08-01T01:13:26;19.10;99.90
12957;DHT22;6543;48.836;10.092;2022-08-01T01:16:01;19.10;99.90
12957;DHT22;6543;48.836;10.092;2022-08-01T01:18:32;19.10;99.90
12957;DHT22;6543;48.836;10.092;2022-08-01T01:21:04;19.10;99.90
12957;DHT22;6543;48.836;10.092;2022-08-01T01:23:53;19.20;99.90
12957;DHT22;6543;48.836;10.092;2022-08-01T01:26:43;19.10;99.90
12957;DHT22;6543;48.836;10.092;2022-08-01T01:29:17;19.10;99.90
12957;DHT22;6543;48.836;10.092;2022-08-01T01:31:49;19.00;99.90
12957;DHT22;6543;48.836;10.092;2022-08-01T01:34:19;18.90;99.90
12957;DHT22;6543;48.836;10.092;2022-08-01T01:36:48;18.70;99.90
12957;DHT22;6543;48.836;10.092;2022-08-01T01:39:16;18.60;99.90
12957;DHT22;6543;48.836;10.092;2022-08-01T01:41:44;18.50;99.90
12957;DHT22;6543;48.836;10.092;2022-08-01T01:44:12;18.50;99.90
12957;DHT22;6543;48.836;10.092;2022-08-01T01:46:41;18.70;99.90
12957;DHT22;6543;48.836;10.092;2022-08-01T01:49:08;18.60;99.90
12957;DHT22;6543;48.836;10.092;2022-08-01T01:51:37;18.60;99.90
12957;DHT22;6543;48.836;10.092;2022-08-01T01:54:05;18.40;99.90
12957;DHT22;6543;48.836;10.092;2022-08-01T01:56:33;18.30;99.90
12957;DHT22;6543;48.836;10.092;2022-08-01T01:59:15;18.30;99.90
12957;DHT22;6543;48.836;10.092;2022-08-01T02:01:45;18.40;99.90
12957;DHT22;6543;48.836;10.092;2022-08-01T02:04:13;18.40;99.90
12957;DHT22;6543;48.836;10.092;2022-08-01T02:06:41;18.40;99.90
12957;DHT22;6543;48.836;10.092;2022-08-01T02:09:09;18.30;99.90
12957;DHT22;6543;48.836;10.092;2022-08-01T02:11:38;18.40;99.90
12957;DHT22;6543;48.836;10.092;2022-08-01T02:14:07;18.40;99.90
12957;DHT22;6543;48.836;10.092;2022-08-01T02:16:37;18.40;99.90
12957;DHT22;6543;48.836;10.092;2022-08-01T02:19:07;18.40;99.90
12957;DHT22;6543;48.836;10.092;2022-08-01T02:21:40;18.60;99.90
12957;DHT22;6543;48.836;10.092;2022-08-01T02:24:13;18.60;99.90
12957;DHT22;6543;48.836;10.092;2022-08-01T02:26:46;18.50;99.90
12957;DHT22;6543;48.836;10.092;2022-08-01T02:29:18;18.50;99.90
12957;DHT22;6543;48.836;10.092;2022-08-01T02:31:48;18.60;99.90
12957;DHT22;6543;48.836;10.092;2022-08-01T02:34:19;18.60;99.90
12957;DHT22;6543;48.836;10.092;2022-08-01T02:36:48;18.50;99.90
12957;DHT22;6543;48.836;10.092;2022-08-01T02:39:18;18.50;99.90
12957;DHT22;6543;48.836;10.092;2022-08-01T02:41:47;18.50;99.90
12957;DHT22;6543;48.836;10.092;2022-08-01T02:44:18;18.40;99.90
12957;DHT22;6543;48.836;10.092;2022-08-01T02:46:51;18.30;99.90
12957;DHT22;6543;48.836;10.092;2022-08-01T02:49:21;18.20;99.90
12957;DHT22;6543;48.836;10.092;2022-08-01T02:51:51;18.20;99.90
12957;DHT22;6543;48.836;10.092;2022-08-01T02:54:21;18.30;99.90
12957;DHT22;6543;48.836;10.092;2022-08-01T02:56:50;18.30;99.90
12957;DHT22;6543;48.836;10.092;2022-08-01T02:59:20;18.30;99.90
12957;DHT22;6543;48.836;10.092;2022-08-01T03:01:51;18.30;99.90
12957;DHT22;6543;48.836;10.092;2022-08-01T03:04:22;18.30;99.90
12957;DHT22;6543;48.836;10.092;2022-08-01T03:06:50;18.20;99.90
12957;DHT22;6543;48.836;10.092;2022-08-01T03:09:18;18.20;99.90
12957;DHT22;6543;48.836;10.092;2022-08-01T03:11:46;18.30;99.90
12957;DHT22;6543;48.836;10.092;2022-08-01T03:14:14;18.50;99.90
12957;DHT22;6543;48.836;10.092;2022-08-01T03:16:44;18.50;99.90
12957;DHT22;6543;48.836;10.092;2022-08-01T03:19:12;18.30;99.90
12957;DHT22;6543;48.836;10.092;2022-08-01T03:21:43;18.10;99.90
12957;DHT22;6543;48.836;10.092;2022-08-01T03:24:11;18.00;99.90
12957;DHT22;6543;48.836;10.092;2022-08-01T03:26:40;17.90;99.90
12957;DHT22;6543;48.836;10.092;2022-08-01T03:29:12;17.80;99.90
12957;DHT22;6543;48.836;10.092;2022-08-01T03:31:44;17.90;99.90
12957;DHT22;6543;48.836;10.092;2022-08-01T03:34:11;17.90;99.90
12957;DHT22;6543;48.836;10.092;2022-08-01T03:36:45;17.90;99.90
12957;DHT22;6543;48.836;10.092;2022-08-01T03:39:13;17.90;99.90
12957;DHT22;6543;48.836;10.092;2022-08-01T03:41:46;17.90;99.90
12957;DHT22;6543;48.836;10.092;2022-08-01T03:44:14;17.90;99.90
12957;DHT22;6543;48.836;10.092;2022-08-01T03:46:44;17.90;99.90
12957;DHT22;6543;48.836;10.092;2022-08-01T03:49:17;17.70;99.90
12957;DHT22;6543;48.836;10.092;2022-08-01T03:51:48;17.70;99.90
12957;DHT22;6543;48.836;10.092;2022-08-01T03:54:17;17.60;99.90
12957;DHT22;6543;48.836;10.092;2022-08-01T03:56:48;17.60;99.90
12957;DHT22;6543;48.836;10.092;2022-08-01T03:59:16;17.60;99.90
12957;DHT22;6543;48.836;10.092;2022-08-01T04:01:44;17.60;99.90
12957;DHT22;6543;48.836;10.092;2022-08-01T04:04:12;17.70;99.90
12957;DHT22;6543;48.836;10.092;2022-08-01T04:06:39;17.70;99.90
12957;DHT22;6543;48.836;10.092;2022-08-01T04:09:08;17.80;99.90
12957;DHT22;6543;48.836;10.092;2022-08-01T04:11:35;17.70;99.90
12957;DHT22;6543;48.836;10.092;2022-08-01T04:14:02;17.70;99.90
12957;DHT22;6543;48.836;10.092;2022-08-01T04:16:29;17.70;99.90
12957;DHT22;6543;48.836;10.092;2022-08-01T04:18:56;17.70;99.90
12957;DHT22;6543;48.836;10.092;2022-08-01T04:21:25;17.70;99.90
12957;DHT22;6543;48.836;10.092;2022-08-01T04:23:56;17.70;99.90
12957;DHT22;6543;48.836;10.092;2022-08-01T04:26:26;17.80;99.90
12957;DHT22;6543;48.836;10.092;2022-08-01T04:28:55;17.90;99.90
12957;DHT22;6543;48.836;10.092;2022-08-01T04:31:23;18.00;99.90
12957;DHT22;6543;48.836;10.092;2022-08-01T04:33:53;18.10;99.90
12957;DHT22;6543;48.836;10.092;2022-08-01T04:36:23;18.10;99.90
12957;DHT22;6543;48.836;10.092;2022-08-01T04:38:54;18.20;99.90
12957;DHT22;6543;48.836;10.092;2022-08-01T04:41:25;18.20;99.90
12957;DHT22;6543;48.836;10.092;2022-08-01T04:43:52;18.20;99.90
12957;DHT22;6543;48.836;10.092;2022-08-01T04:46:20;18.20;99.90
12957;DHT22;6543;48.836;10.092;2022-08-01T04:48:49;18.20;99.90
12957;DHT22;6543;48.836;10.092;2022-08-01T04:51:17;18.30;99.90
12957;DHT22;6543;48.836;10.092;2022-08-01T04:53:47;18.40;99.90
12957;DHT22;6543;48.836;10.092;2022-08-01T04:56:16;18.50;99.90
12957;DHT22;6543;48.836;10.092;2022-08-01T04:58:44;18.60;99.90
12957;DHT22;6543;48.836;10.092;2022-08-01T05:01:11;18.70;99.90
12957;DHT22;6543;48.836;10.092;2022-08-01T05:03:38;18.90;99.90
12957;DHT22;6543;48.836;10.092;2022-08-01T05:06:05;19.10;99.90
12957;DHT22;6543;48.836;10.092;2022-08-01T05:08:32;19.20;99.90
12957;DHT22;6543;48.836;10.092;2022-08-01T05:10:59;19.30;99.90
12957;DHT22;6543;48.836;10.092;2022-08-01T05:13:26;19.50;99.90
12957;DHT22;6543;48.836;10.092;2022-08-01T05:15:55;19.50;99.90
12957;DHT22;6543;48.836;10.092;2022-08-01T05:18:21;19.60;99.90
12957;DHT22;6543;48.836;10.092;2022-08-01T05:20:48;19.80;99.90
12957;DHT22;6543;48.836;10.092;2022-08-01T05:23:15;19.80;99.90
12957;DHT22;6543;48.836;10.092;2022-08-01T05:25:43;19.80;99.90
12957;DHT22;6543;48.836;10.092;2022-08-01T05:28:10;19.70;99.90
12957;DHT22;6543;48.836;10.092;2022-08-01T05:30:38;19.70;99.90
12957;DHT22;6543;48.836;10.092;2022-08-01T05:33:07;19.70;99.90
12957;DHT22;6543;48.836;10.092;2022-08-01T05:35:34;19.60;99.90
12957;DHT22;6543;48.836;10.092;2022-08-01T05:38:01;19.50;99.90
12957;DHT22;6543;48.836;10.092;2022-08-01T05:40:27;19.60;99.90
12957;DHT22;6543;48.836;10.092;2022-08-01T05:42:54;19.70;99.90
12957;DHT22;6543;48.836;10.092;2022-08-01T05:45:21;19.90;99.90
12957;DHT22;6543;48.836;10.092;2022-08-01T05:47:48;19.90;99.90
12957;DHT22;6543;48.836;10.092;2022-08-01T05:50:16;20.00;99.90
12957;DHT22;6543;48.836;10.092;2022-08-01T05:52:43;20.20;99.90
12957;DHT22;6543;48.836;10.092;2022-08-01T05:55:10;20.10;99.90
12957;DHT22;6543;48.836;10.092;2022-08-01T05:57:37;20.30;99.90
12957;DHT22;6543;48.836;10.092;2022-08-01T06:00:05;20.30;99.90
12957;DHT22;6543;48.836;10.092;2022-08-01T06:02:32;20.40;99.90
12957;DHT22;6543;48.836;10.092;2022-08-01T06:04:59;20.40;99.90
12957;DHT22;6543;48.836;10.092;2022-08-01T06:07:27;20.60;99.90
12957;DHT22;6543;48.836;10.092;2022-08-01T06:09:54;20.50;99.90
12957;DHT22;6543;48.836;10.092;2022-08-01T06:12:21;20.70;99.90
12957;DHT22;6543;48.836;10.092;2022-08-01T06:14:48;20.80;99.90
12957;DHT22;6543;48.836;10.092;2022-08-01T06:17:15;21.00;99.90
12957;DHT22;6543;48.836;10.092;2022-08-01T06:19:42;20.80;99.90
12957;DHT22;6543;48.836;10.092;2022-08-01T06:22:08;20.90;99.90
12957;DHT22;6543;48.836;10.092;2022-08-01T06:24:37;21.10;99.90
12957;DHT22;6543;48.836;10.092;2022-08-01T06:27:04;21.20;99.90
12957;DHT22;6543;48.836;10.092;2022-08-01T06:29:30;20.90;99.90
12957;DHT22;6543;48.836;10.092;2022-08-01T06:31:57;20.90;99.90
12957;DHT22;6543;48.836;10.092;2022-08-01T06:34:24;20.90;99.90
12957;DHT22;6543;48.836;10.092;2022-08-01T06:36:51;21.20;99.90
12957;DHT22;6543;48.836;10.092;2022-08-01T06:39:18;21.00;99.90
12957;DHT22;6543;48.836;10.092;2022-08-01T06:41:46;21.00;99.90
12957;DHT22;6543;48.836;10.092;2022-08-01T06:44:13;20.80;99.90
12957;DHT22;6543;48.836;10.092;2022-08-01T06:46:40;20.90;99.90
12957;DHT22;6543;48.836;10.092;2022-08-01T06:49:07;21.00;99.90
12957;DHT22;6543;48.836;10.092;2022-08-01T06:51:34;21.10;99.90
12957;DHT22;6543;48.836;10.092;2022-08-01T06:54:01;21.40;99.90
12957;DHT22;6543;48.836;10.092;2022-08-01T06:56:28;21.20;99.90
12957;DHT22;6543;48.836;10.092;2022-08-01T06:58:56;21.20;99.90
12957;DHT22;6543;48.836;10.092;2022-08-01T07:01:26;21.50;99.90
12957;DHT22;6543;48.836;10.092;2022-08-01T07:03:53;21.50;99.90
12957;DHT22;6543;48.836;10.092;2022-08-01T07:06:21;21.60;99.90
12957;DHT22;6543;48.836;10.092;2022-08-01T07:08:48;21.60;99.90
12957;DHT22;6543;48.836;10.092;2022-08-01T07:11:15;21.90;99.90
12957;DHT22;6543;48.836;10.092;2022-08-01T07:13:42;22.10;99.90
12957;DHT22;6543;48.836;10.092;2022-08-01T07:16:12;21.90;99.90
12957;DHT22;6543;48.836;10.092;2022-08-01T07:18:40;21.80;99.90
12957;DHT22;6543;48.836;10.092;2022-08-01T07:21:07;21.90;99.90
12957;DHT22;6543;48.836;10.092;2022-08-01T07:23:35;22.10;99.90
12957;DHT22;6543;48.836;10.092;2022-08-01T07:26:02;22.00;99.90
12957;DHT22;6543;48.836;10.092;2022-08-01T07:28:30;22.00;99.90
12957;DHT22;6543;48.836;10.092;2022-08-01T07:30:57;21.90;99.90
12957;DHT22;6543;48.836;10.092;2022-08-01T07:33:25;22.20;99.90
12957;DHT22;6543;48.836;10.092;2022-08-01T07:35:52;22.50;99.90
12957;DHT22;6543;48.836;10.092;2022-08-01T07:38:19;22.50;99.90
12957;DHT22;6543;48.836;10.092;2022-08-01T07:40:46;22.50;99.90
12957;DHT22;6543;48.836;10.092;2022-08-01T07:43:13;22.60;99.90
12957;DHT22;6543;48.836;10.092;2022-08-01T07:45:40;22.70;99.90
12957;DHT22;6543;48.836;10.092;2022-08-01T07:48:07;22.90;99.90
12957;DHT22;6543;48.836;10.092;2022-08-01T07:50:36;23.30;99.90
12957;DHT22;6543;48.836;10.092;2022-08-01T07:53:03;23.50;99.90
12957;DHT22;6543;48.836;10.092;2022-08-01T07:55:30;23.30;99.90
12957;DHT22;6543;48.836;10.092;2022-08-01T07:57:57;23.30;99.90
12957;DHT22;6543;48.836;10.092;2022-08-01T08:00:24;23.40;99.90
12957;DHT22;6543;48.836;10.092;2022-08-01T08:02:52;23.80;99.90
12957;DHT22;6543;48.836;10.092;2022-08-01T08:05:20;24.20;99.90
12957;DHT22;6543;48.836;10.092;2022-08-01T08:07:49;23.80;99.90
12957;DHT22;6543;48.836;10.092;2022-08-01T08:10:15;24.00;99.90
12957;DHT22;6543;48.836;10.092;2022-08-01T08:12:42;24.10;99.90
12957;DHT22;6543;48.836;10.092;2022-08-01T08:15:11;23.90;99.90
12957;DHT22;6543;48.836;10.092;2022-08-01T08:17:38;24.30;99.90
12957;DHT22;6543;48.836;10.092;2022-08-01T08:20:07;23.90;99.90
12957;DHT22;6543;48.836;10.092;2022-08-01T08:22:34;24.10;99.90
12957;DHT22;6543;48.836;10.092;2022-08-01T08:25:03;24.00;99.90
12957;DHT22;6543;48.836;10.092;2022-08-01T08:27:30;24.10;99.90
12957;DHT22;6543;48.836;10.092;2022-08-01T08:29:57;24.40;99.90
12957;DHT22;6543;48.836;10.092;2022-08-01T08:32:24;24.60;99.90
12957;DHT22;6543;48.836;10.092;2022-08-01T08:34:51;24.80;99.90
12957;DHT22;6543;48.836;10.092;2022-08-01T08:37:18;24.90;99.90
12957;DHT22;6543;48.836;10.092;2022-08-01T08:39:45;25.00;99.90
12957;DHT22;6543;48.836;10.092;2022-08-01T08:42:13;25.40;99.90
12957;DHT22;6543;48.836;10.092;2022-08-01T08:44:41;24.80;99.90
12957;DHT22;6543;48.836;10.092;2022-08-01T08:47:13;24.50;99.90
12957;DHT22;6543;48.836;10.092;2022-08-01T08:49:43;24.50;99.90
12957;DHT22;6543;48.836;10.092;2022-08-01T08:52:10;24.40;99.90
12957;DHT22;6543;48.836;10.092;2022-08-01T08:54:38;24.50;99.90
12957;DHT22;6543;48.836;10.092;2022-08-01T08:57:07;24.90;99.90
12957;DHT22;6543;48.836;10.092;2022-08-01T08:59:37;24.90;99.90
12957;DHT22;6543;48.836;10.092;2022-08-01T09:02:04;25.10;99.90
12957;DHT22;6543;48.836;10.092;2022-08-01T09:04:31;24.50;99.90
12957;DHT22;6543;48.836;10.092;2022-08-01T09:06:59;24.80;99.90
12957;DHT22;6543;48.836;10.092;2022-08-01T09:09:25;24.60;99.90
12957;DHT22;6543;48.836;10.092;2022-08-01T09:11:54;24.60;99.90
12957;DHT22;6543;48.836;10.092;2022-08-01T09:14:21;24.90;99.90
12957;DHT22;6543;48.836;10.092;2022-08-01T09:17:02;24.80;99.90
12957;DHT22;6543;48.836;10.092;2022-08-01T09:19:36;24.60;99.90
12957;DHT22;6543;48.836;10.092;2022-08-01T09:22:05;25.20;99.90
12957;DHT22;6543;48.836;10.092;2022-08-01T09:24:34;24.30;99.90
12957;DHT22;6543;48.836;10.092;2022-08-01T09:27:14;24.00;99.90
12957;DHT22;6543;48.836;10.092;2022-08-01T09:29:42;23.70;99.90
12957;DHT22;6543;48.836;10.092;2022-08-01T09:32:11;24.20;99.90
12957;DHT22;6543;48.836;10.092;2022-08-01T09:34:38;24.70;99.90
12957;DHT22;6543;48.836;10.092;2022-08-01T09:37:05;24.50;99.90
12957;DHT22;6543;48.836;10.092;2022-08-01T09:39:34;24.40;99.90
12957;DHT22;6543;48.836;10.092;2022-08-01T09:42:18;24.80;99.90
12957;DHT22;6543;48.836;10.092;2022-08-01T09:44:46;25.40;99.90
12957;DHT22;6543;48.836;10.092;2022-08-01T09:47:15;25.30;99.90
12957;DHT22;6543;48.836;10.092;2022-08-01T09:49:44;24.80;99.90
12957;DHT22;6543;48.836;10.092;2022-08-01T09:52:13;24.50;99.90
12957;DHT22;6543;48.836;10.092;2022-08-01T09:54:41;24.80;99.90
12957;DHT22;6543;48.836;10.092;2022-08-01T09:57:11;24.60;99.90
12957;DHT22;6543;48.836;10.092;2022-08-01T09:59:40;24.60;99.90
12957;DHT22;6543;48.836;10.092;2022-08-01T10:02:09;24.60;99.90
12957;DHT22;6543;48.836;10.092;2022-08-01T10:07:14;24.60;99.90
12957;DHT22;6543;48.836;10.092;2022-08-01T10:09:42;24.60;99.90
12957;DHT22;6543;48.836;10.092;2022-08-01T10:12:11;24.90;99.90
12957;DHT22;6543;48.836;10.092;2022-08-01T10:14:38;25.30;99.90
12957;DHT22;6543;48.836;10.092;2022-08-01T10:17:10;25.80;99.90
12957;DHT22;6543;48.836;10.092;2022-08-01T10:19:40;25.80;99.90
12957;DHT22;6543;48.836;10.092;2022-08-01T10:22:11;25.70;99.90
12957;DHT22;6543;48.836;10.092;2022-08-01T10:24:40;25.00;99.90
12957;DHT22;6543;48.836;10.092;2022-08-01T10:27:08;25.40;99.90
12957;DHT22;6543;48.836;10.092;2022-08-01T10:29:41;26.30;99.90
12957;DHT22;6543;48.836;10.092;2022-08-01T10:32:09;26.10;99.90
12957;DHT22;6543;48.836;10.092;2022-08-01T10:34:36;25.70;99.90
12957;DHT22;6543;48.836;10.092;2022-08-01T10:37:04;25.50;99.90
12957;DHT22;6543;48.836;10.092;2022-08-01T10:39:33;25.70;99.90
12957;DHT22;6543;48.836;10.092;2022-08-01T10:42:01;26.00;99.90
12957;DHT22;6543;48.836;10.092;2022-08-01T10:44:30;26.10;99.90
12957;DHT22;6543;48.836;10.092;2022-08-01T10:47:02;26.00;99.90
12957;DHT22;6543;48.836;10.092;2022-08-01T10:49:32;25.90;99.90
12957;DHT22;6543;48.836;10.092;2022-08-01T10:52:01;26.30;99.90
12957;DHT22;6543;48.836;10.092;2022-08-01T10:54:28;26.40;99.90
12957;DHT22;6543;48.836;10.092;2022-08-01T10:56:59;26.00;99.90
12957;DHT22;6543;48.836;10.092;2022-08-01T10:59:28;26.50;99.90
12957;DHT22;6543;48.836;10.092;2022-08-01T11:01:57;26.50;99.90
12957;DHT22;6543;48.836;10.092;2022-08-01T11:04:34;26.70;99.90
12957;DHT22;6543;48.836;10.092;2022-08-01T11:07:08;26.70;99.90
12957;DHT22;6543;48.836;10.092;2022-08-01T11:09:41;26.60;99.90
12957;DHT22;6543;48.836;10.092;2022-08-01T11:12:11;26.90;99.90
12957;DHT22;6543;48.836;10.092;2022-08-01T11:17:50;26.60;99.90
12957;DHT22;6543;48.836;10.092;2022-08-01T11:20:18;26.60;99.90
12957;DHT22;6543;48.836;10.092;2022-08-01T11:23:15;26.30;99.90
12957;DHT22;6543;48.836;10.092;2022-08-01T11:26:11;26.50;99.90
12957;DHT22;6543;48.836;10.092;2022-08-01T11:28:41;26.50;99.90
12957;DHT22;6543;48.836;10.092;2022-08-01T11:31:28;25.90;99.90
12957;DHT22;6543;48.836;10.092;2022-08-01T11:33:55;26.00;99.90
12957;DHT22;6543;48.836;10.092;2022-08-01T11:36:22;26.00;99.90
12957;DHT22;6543;48.836;10.092;2022-08-01T11:41:32;26.50;99.90
12957;DHT22;6543;48.836;10.092;2022-08-01T11:44:03;26.00;99.90
12957;DHT22;6543;48.836;10.092;2022-08-01T11:46:56;26.00;99.90
12957;DHT22;6543;48.836;10.092;2022-08-01T11:49:44;25.60;99.90
12957;DHT22;6543;48.836;10.092;2022-08-01T11:52:12;25.50;99.90
12957;DHT22;6543;48.836;10.092;2022-08-01T11:54:42;26.00;99.90
12957;DHT22;6543;48.836;10.092;2022-08-01T11:57:10;26.10;99.90
12957;DHT22;6543;48.836;10.092;2022-08-01T11:59:41;26.40;99.90
12957;DHT22;6543;48.836;10.092;2022-08-01T12:02:22;26.50;99.90
12957;DHT22;6543;48.836;10.092;2022-08-01T12:04:54;26.80;99.90
12957;DHT22;6543;48.836;10.092;2022-08-01T12:07:23;27.10;99.90
12957;DHT22;6543;48.836;10.092;2022-08-01T12:09:58;27.60;99.90
12957;DHT22;6543;48.836;10.092;2022-08-01T12:12:27;27.20;99.90
12957;DHT22;6543;48.836;10.092;2022-08-01T12:14:58;26.40;99.90
12957;DHT22;6543;48.836;10.092;2022-08-01T12:17:33;26.20;99.90
12957;DHT22;6543;48.836;10.092;2022-08-01T12:20:01;26.10;99.90
12957;DHT22;6543;48.836;10.092;2022-08-01T12:22:28;26.30;99.90
12957;DHT22;6543;48.836;10.092;2022-08-01T12:24:55;27.00;99.90
12957;DHT22;6543;48.836;10.092;2022-08-01T12:27:27;27.60;99.80
12957;DHT22;6543;48.836;10.092;2022-08-01T12:29:57;27.40;99.90
12957;DHT22;6543;48.836;10.092;2022-08-01T12:32:26;26.70;99.90
12957;DHT22;6543;48.836;10.092;2022-08-01T12:34:55;26.10;99.90
12957;DHT22;6543;48.836;10.092;2022-08-01T12:37:23;26.00;99.90
12957;DHT22;6543;48.836;10.092;2022-08-01T12:39:50;26.00;99.90
12957;DHT22;6543;48.836;10.092;2022-08-01T12:42:17;25.90;99.90
12957;DHT22;6543;48.836;10.092;2022-08-01T12:44:47;26.40;99.90
12957;DHT22;6543;48.836;10.092;2022-08-01T12:47:18;27.00;99.90
12957;DHT22;6543;48.836;10.092;2022-08-01T12:49:47;27.40;99.70
12957;DHT22;6543;48.836;10.092;2022-08-01T12:52:14;26.80;99.30
12957;DHT22;6543;48.836;10.092;2022-08-01T12:55:01;27.30;98.90
12957;DHT22;6543;48.836;10.092;2022-08-01T12:57:28;27.30;98.60
12957;DHT22;6543;48.836;10.092;2022-08-01T13:00:05;27.20;98.60
12957;DHT22;6543;48.836;10.092;2022-08-01T13:02:35;26.90;98.90
12957;DHT22;6543;48.836;10.092;2022-08-01T13:05:02;26.90;99.50
12957;DHT22;6543;48.836;10.092;2022-08-01T13:07:36;26.70;99.90
12957;DHT22;6543;48.836;10.092;2022-08-01T13:10:04;26.40;99.90
12957;DHT22;6543;48.836;10.092;2022-08-01T13:12:32;26.30;99.90
12957;DHT22;6543;48.836;10.092;2022-08-01T13:14:59;26.30;99.90
12957;DHT22;6543;48.836;10.092;2022-08-01T13:17:30;26.10;99.90
12957;DHT22;6543;48.836;10.092;2022-08-01T13:19:59;26.50;99.20
12957;DHT22;6543;48.836;10.092;2022-08-01T13:22:32;26.40;99.50
12957;DHT22;6543;48.836;10.092;2022-08-01T13:25:10;27.20;98.40
12957;DHT22;6543;48.836;10.092;2022-08-01T13:27:37;27.10;97.60
12957;DHT22;6543;48.836;10.092;2022-08-01T13:30:13;27.10;97.70
12957;DHT22;6543;48.836;10.092;2022-08-01T13:32:41;27.30;97.80
12957;DHT22;6543;48.836;10.092;2022-08-01T13:35:12;27.60;97.20
12957;DHT22;6543;48.836;10.092;2022-08-01T13:37:41;27.70;97.00
12957;DHT22;6543;48.836;10.092;2022-08-01T13:40:10;27.60;96.70
12957;DHT22;6543;48.836;10.092;2022-08-01T13:42:37;27.20;96.40
12957;DHT22;6543;48.836;10.092;2022-08-01T13:45:06;27.30;96.60
12957;DHT22;6543;48.836;10.092;2022-08-01T13:47:36;27.50;96.70
12957;DHT22;6543;48.836;10.092;2022-08-01T13:50:03;27.70;96.60
12957;DHT22;6543;48.836;10.092;2022-08-01T13:52:32;27.50;97.20
12957;DHT22;6543;48.836;10.092;2022-08-01T13:54:59;27.20;97.70
12957;DHT22;6543;48.836;10.092;2022-08-01T13:57:27;26.90;97.90
12957;DHT22;6543;48.836;10.092;2022-08-01T13:59:54;26.80;98.30
12957;DHT22;6543;48.836;10.092;2022-08-01T14:02:23;26.70;98.10
12957;DHT22;6543;48.836;10.092;2022-08-01T14:04:50;27.00;97.60
12957;DHT22;6543;48.836;10.092;2022-08-01T14:07:17;26.70;98.10
12957;DHT22;6543;48.836;10.092;2022-08-01T14:09:45;26.90;98.40
12957;DHT22;6543;48.836;10.092;2022-08-01T14:12:12;27.30;97.20
12957;DHT22;6543;48.836;10.092;2022-08-01T14:14:39;27.80;96.80
12957;DHT22;6543;48.836;10.092;2022-08-01T14:17:06;28.30;95.90
12957;DHT22;6543;48.836;10.092;2022-08-01T14:19:33;28.30;95.80
12957;DHT22;6543;48.836;10.092;2022-08-01T14:22:00;28.10;96.50
12957;DHT22;6543;48.836;10.092;2022-08-01T14:24:27;27.90;96.70
12957;DHT22;6543;48.836;10.092;2022-08-01T14:26:55;28.30;96.50
12957;DHT22;6543;48.836;10.092;2022-08-01T14:29:22;27.80;96.50
12957;DHT22;6543;48.836;10.092;2022-08-01T14:31:49;27.70;96.00
12957;DHT22;6543;48.836;10.092;2022-08-01T14:34:16;27.80;96.10
12957;DHT22;6543;48.836;10.092;2022-08-01T14:36:43;27.60;96.30
12957;DHT22;6543;48.836;10.092;2022-08-01T14:39:10;27.90;95.90
12957;DHT22;6543;48.836;10.092;2022-08-01T14:41:38;27.80;95.70
12957;DHT22;6543;48.836;10.092;2022-08-01T14:44:06;27.40;96.40
12957;DHT22;6543;48.836;10.092;2022-08-01T14:46:34;27.50;96.70
12957;DHT22;6543;48.836;10.092;2022-08-01T14:49:01;27.40;96.60
12957;DHT22;6543;48.836;10.092;2022-08-01T14:51:28;27.10;97.10
12957;DHT22;6543;48.836;10.092;2022-08-01T14:53:58;27.20;97.00
12957;DHT22;6543;48.836;10.092;2022-08-01T14:56:25;27.40;96.50
12957;DHT22;6543;48.836;10.092;2022-08-01T14:58:52;27.60;96.20
12957;DHT22;6543;48.836;10.092;2022-08-01T15:01:20;27.60;95.70
12957;DHT22;6543;48.836;10.092;2022-08-01T15:03:47;27.20;96.00
12957;DHT22;6543;48.836;10.092;2022-08-01T15:06:16;27.00;96.50
12957;DHT22;6543;48.836;10.092;2022-08-01T15:08:43;26.90;96.80
12957;DHT22;6543;48.836;10.092;2022-08-01T15:11:10;26.80;96.90
12957;DHT22;6543;48.836;10.092;2022-08-01T15:13:37;26.70;97.60
12957;DHT22;6543;48.836;10.092;2022-08-01T15:16:04;27.90;96.00
12957;DHT22;6543;48.836;10.092;2022-08-01T15:18:32;28.80;94.40
12957;DHT22;6543;48.836;10.092;2022-08-01T15:20:59;29.30;93.60
12957;DHT22;6543;48.836;10.092;2022-08-01T15:23:26;29.80;93.00
12957;DHT22;6543;48.836;10.092;2022-08-01T15:25:53;29.70;92.50
12957;DHT22;6543;48.836;10.092;2022-08-01T15:28:19;29.70;92.40
12957;DHT22;6543;48.836;10.092;2022-08-01T15:30:46;29.60;91.50
12957;DHT22;6543;48.836;10.092;2022-08-01T15:33:13;29.10;92.40
12957;DHT22;6543;48.836;10.092;2022-08-01T15:35:42;28.80;92.80
12957;DHT22;6543;48.836;10.092;2022-08-01T15:38:09;27.90;93.80
12957;DHT22;6543;48.836;10.092;2022-08-01T15:40:36;27.70;94.60
12957;DHT22;6543;48.836;10.092;2022-08-01T15:43:03;28.40;93.80
12957;DHT22;6543;48.836;10.092;2022-08-01T15:45:30;28.70;93.60
12957;DHT22;6543;48.836;10.092;2022-08-01T15:47:57;29.50;92.10
12957;DHT22;6543;48.836;10.092;2022-08-01T15:50:24;28.60;93.10